Observations for LONDON GATWICK ARPT, United Kingdom (EGKK)

EGKK 200620Z 33005KT CAVOK 11/07 Q1030  
EGKK 200550Z 34004KT 310V130 CAVOK 11/06 Q1030  
EGKK 200520Z 34004KT 280V040 CAVOK 10/06 Q1030  
EGKK 200450Z VRB02KT CAVOK 09/06 Q1030  
EGKK 200420Z 29002KT 8000 NSC 09/06 Q1030   
EGKK 200350Z 31003KT CAVOK 09/05 Q1030  
EGKK 200320Z 33002KT CAVOK 10/06 Q1030  
EGKK 200250Z 33004KT CAVOK 10/06 Q1030  
EGKK 200220Z 34006KT CAVOK 11/06 Q1030  
EGKK 200150Z 36005KT CAVOK 10/06 Q1030  
EGKK 200120Z 33003KT CAVOK 09/05 Q1030  
EGKK 200050Z VRB01KT CAVOK 09/05 Q1030  
EGKK 200020Z VRB01KT CAVOK 09/05 Q1030  
EGKK 192350Z 06002KT CAVOK 10/05 Q1030  
EGKK 192320Z 08002KT CAVOK 11/05 Q1030  
EGKK 192250Z VRB02KT CAVOK 11/05 Q1030  
EGKK 192220Z 07002KT CAVOK 11/05 Q1030  
EGKK 192150Z 07004KT 040V130 CAVOK 12/05 Q1030  
EGKK 192120Z 05006KT 020V100 CAVOK 13/05 Q1030  
EGKK 192050Z 06003KT CAVOK 14/05 Q1030  
EGKK 192020Z 07004KT CAVOK 15/05 Q1030  
EGKK 191950Z 07005KT 030V110 CAVOK 14/05 Q1030  
EGKK 191920Z 05007KT CAVOK 16/05 Q1029  
EGKK 191850Z 05007KT CAVOK 17/04 Q1029  
EGKK 191820Z 05007KT CAVOK 19/04 Q1029  
EGKK 191750Z 06009KT CAVOK 19/05 Q1028  
EGKK 191720Z 06011KT CAVOK 20/04 Q1028  
EGKK 191650Z 05010KT CAVOK 21/05 Q1028  
EGKK 191620Z 06010KT CAVOK 21/05 Q1028  
EGKK 191550Z 08010KT CAVOK 22/05 Q1027  
EGKK 191520Z 06011KT CAVOK 22/05 Q1027  
EGKK 191450Z 08011KT CAVOK 22/06 Q1028  
EGKK 191420Z 06011KT 020V100 CAVOK 22/06 Q1028  
EGKK 191350Z 05009KT 010V110 CAVOK 23/07 Q1028  
EGKK 191320Z 04009G21KT 010V100 CAVOK 22/07 Q1028   
EGKK 191250Z 05010KT 010V090 CAVOK 22/07 Q1028  
EGKK 191220Z 05011KT 020V100 CAVOK 21/07 Q1028  
EGKK 191150Z 05011KT 020V100 CAVOK 21/07 Q1028  
EGKK 191120Z 05011KT 020V100 CAVOK 20/08 Q1028  
EGKK 191050Z 03007KT 350V070 CAVOK 20/09 Q1028  
EGKK 191020Z 06007KT 020V100 CAVOK 19/09 Q1028  
EGKK 190950Z 04008KT 010V110 CAVOK 19/08 Q1028  
EGKK 190920Z 02006KT 350V060 CAVOK 17/08 Q1027  
EGKK 190850Z 03005KT 360V070 CAVOK 16/08 Q1027  
EGKK 190820Z 01005KT 340V120 CAVOK 15/08 Q1027  
EGKK 190750Z 02004KT 350V090 CAVOK 13/08 Q1027  
EGKK 190720Z 04005KT 360V080 CAVOK 12/07 Q1027  
EGKK 190650Z 03004KT 9000 NSC 11/07 Q1027   
EGKK 190620Z 01005KT 320V100 9000 NSC 10/07 Q1027   
EGKK 190550Z 36006KT CAVOK 09/06 Q1027